createdAt,value
2019-04-11T00:01:54.343Z,3.03
2019-04-11T00:04:22.060Z,2.87
2019-04-11T00:06:49.886Z,2.73
2019-04-11T00:09:16.862Z,3.70
2019-04-11T00:11:46.196Z,3.13
2019-04-11T00:14:13.809Z,2.70
2019-04-11T00:16:41.551Z,3.20
2019-04-11T00:19:09.408Z,3.13
2019-04-11T00:21:37.964Z,3.00
2019-04-11T00:24:04.960Z,2.93
2019-04-11T00:26:32.737Z,3.07
2019-04-11T00:28:59.503Z,2.53
2019-04-11T00:31:27.119Z,3.23
2019-04-11T00:33:54.598Z,2.93
2019-04-11T00:36:22.395Z,2.83
2019-04-11T00:38:49.986Z,2.80
2019-04-11T00:41:18.217Z,2.70
2019-04-11T00:43:46.807Z,2.80
2019-04-11T00:46:13.369Z,3.03
2019-04-11T00:48:41.811Z,2.43
2019-04-11T00:51:08.392Z,2.70
2019-04-11T00:53:36.176Z,2.93
2019-04-11T00:56:04.111Z,3.17
2019-04-11T00:58:31.891Z,3.07
2019-04-11T01:00:59.665Z,2.87
2019-04-11T01:03:26.488Z,2.80
2019-04-11T01:05:54.175Z,2.83
2019-04-11T01:08:22.264Z,2.67
2019-04-11T01:10:49.840Z,2.57
2019-04-11T01:13:17.604Z,2.80
2019-04-11T01:15:52.348Z,2.93
2019-04-11T01:18:19.742Z,2.53
2019-04-11T01:20:48.009Z,3.20
2019-04-11T01:23:15.317Z,2.40
2019-04-11T01:25:42.946Z,3.03
2019-04-11T01:28:10.425Z,2.70
2019-04-11T01:30:38.798Z,3.13
2019-04-11T01:33:06.566Z,2.43
2019-04-11T01:35:33.193Z,2.70
2019-04-11T01:38:00.507Z,3.30
2019-04-11T01:40:27.987Z,2.60
2019-04-11T01:42:55.580Z,3.17
2019-04-11T01:45:23.237Z,2.90
2019-04-11T01:47:55.283Z,2.90
2019-04-11T01:50:22.978Z,2.87
2019-04-11T01:52:49.465Z,2.70
2019-04-11T01:55:16.933Z,3.00
2019-04-11T01:57:44.753Z,2.83
2019-04-11T02:00:12.310Z,2.53
2019-04-11T02:02:42.369Z,2.70
2019-04-11T02:05:12.497Z,3.20
2019-04-11T02:07:40.625Z,2.33
2019-04-11T02:10:08.532Z,2.87
2019-04-11T02:12:35.942Z,3.07
2019-04-11T02:15:03.996Z,2.67
2019-04-11T02:17:31.146Z,3.20
2019-04-11T02:19:58.759Z,2.70
2019-04-11T02:22:27.082Z,2.47
2019-04-11T02:24:57.917Z,2.87
2019-04-11T02:27:26.003Z,3.00
2019-04-11T02:29:53.044Z,2.77
2019-04-11T02:32:21.260Z,2.87
2019-04-11T02:34:48.723Z,3.17
2019-04-11T02:37:17.229Z,2.70
2019-04-11T02:39:43.632Z,3.30
2019-04-11T02:42:12.227Z,3.13
2019-04-11T02:44:56.046Z,3.13
2019-04-11T02:47:13.065Z,3.10
2019-04-11T02:49:35.232Z,3.30
2019-04-11T02:52:02.697Z,3.20
2019-04-11T02:54:30.597Z,3.23
2019-04-11T02:56:57.718Z,2.63
2019-04-11T02:59:26.065Z,3.27
2019-04-11T03:01:53.646Z,3.27
2019-04-11T03:04:22.775Z,3.00
2019-04-11T03:06:49.814Z,2.97
2019-04-11T03:09:18.182Z,3.23
2019-04-11T03:11:45.615Z,3.40
2019-04-11T03:14:14.155Z,3.10
2019-04-11T03:16:51.799Z,3.00
2019-04-11T03:19:25.078Z,3.73
2019-04-11T03:21:41.222Z,3.67
2019-04-11T03:24:08.341Z,3.93
2019-04-11T03:26:35.556Z,3.70
2019-04-11T03:29:02.067Z,3.57
2019-04-11T03:32:14.513Z,3.63
2019-04-11T03:39:19.188Z,3.20
2019-04-11T03:41:37.319Z,3.50
2019-04-11T03:43:59.104Z,3.07
2019-04-11T03:46:33.937Z,3.97
2019-04-11T03:48:55.739Z,3.53
2019-04-11T03:51:12.964Z,3.23
2019-04-11T03:53:40.932Z,3.67
2019-04-11T03:56:07.660Z,3.37
2019-04-11T03:58:34.190Z,3.17
2019-04-11T04:01:05.559Z,3.40
2019-04-11T04:03:31.042Z,3.83
2019-04-11T04:06:00.077Z,3.43
2019-04-11T04:08:26.831Z,3.30
2019-04-11T04:11:00.605Z,3.77
2019-04-11T04:13:30.129Z,3.70
2019-04-11T04:16:06.356Z,3.40
2019-04-11T04:18:38.137Z,3.70
2019-04-11T04:21:09.173Z,3.60
2019-04-11T04:23:35.935Z,3.30
2019-04-11T04:26:06.174Z,3.80
2019-04-11T04:28:33.331Z,3.67
2019-04-11T04:31:00.238Z,3.77
2019-04-11T04:33:28.761Z,3.70
2019-04-11T04:35:56.030Z,3.90
2019-04-11T04:38:23.555Z,3.63
2019-04-11T04:41:05.907Z,3.93
2019-04-11T04:43:18.537Z,3.80
2019-04-11T04:46:07.516Z,3.67
2019-04-11T04:48:16.455Z,3.63
2019-04-11T04:50:42.198Z,3.47
2019-04-11T04:53:09.299Z,4.57
2019-04-11T04:55:36.812Z,3.60
2019-04-11T04:58:04.943Z,4.63
2019-04-11T05:00:32.149Z,3.80
2019-04-11T05:03:01.430Z,4.10
2019-04-11T05:05:28.718Z,3.60
2019-04-11T05:07:56.349Z,3.93
2019-04-11T05:10:24.086Z,4.27
2019-04-11T05:12:51.407Z,3.67
2019-04-11T05:15:18.723Z,4.67
2019-04-11T05:17:46.138Z,4.53
2019-04-11T05:20:13.848Z,4.30
2019-04-11T05:22:41.567Z,3.57
2019-04-11T05:25:10.622Z,4.17
2019-04-11T05:27:37.876Z,4.20
2019-04-11T05:30:05.644Z,4.27
2019-04-11T05:32:33.479Z,4.63
2019-04-11T05:35:02.746Z,4.50
2019-04-11T05:37:29.232Z,4.80
2019-04-11T05:39:56.771Z,4.23
2019-04-11T05:42:26.965Z,3.93
2019-04-11T05:44:53.177Z,4.07
2019-04-11T05:47:21.453Z,4.67
2019-04-11T05:49:50.886Z,4.77
2019-04-11T05:52:18.354Z,4.40
2019-04-11T05:54:49.076Z,4.85
2019-04-11T05:57:15.873Z,5.00
2019-04-11T05:59:43.211Z,4.30
2019-04-11T06:02:09.514Z,4.73
2019-04-11T06:04:40.562Z,4.50
2019-04-11T06:07:11.926Z,4.87
2019-04-11T06:09:40.067Z,4.07
2019-04-11T06:12:09.817Z,4.20
2019-04-11T06:14:41.666Z,4.37
2019-04-11T06:17:09.178Z,4.20
2019-04-11T06:19:38.153Z,5.10
2019-04-11T06:22:06.659Z,5.00
2019-04-11T06:24:34.275Z,4.40
2019-04-11T06:29:59.490Z,6.47
2019-04-11T06:32:43.704Z,4.07
2019-04-11T06:35:15.626Z,4.93
2019-04-11T06:37:48.035Z,4.80
2019-04-11T06:40:21.246Z,5.37
2019-04-11T06:43:05.665Z,5.20
2019-04-11T06:45:46.727Z,4.60
2019-04-11T06:48:15.765Z,4.90
2019-04-11T06:50:45.072Z,4.77
2019-04-11T06:53:12.545Z,3.83
2019-04-11T06:55:53.579Z,4.80
2019-04-11T06:58:22.119Z,4.47
2019-04-11T07:00:51.703Z,4.77
2019-04-11T07:03:23.165Z,4.50
2019-04-11T07:05:46.847Z,4.87
2019-04-11T07:08:13.821Z,4.37
2019-04-11T07:10:53.147Z,4.73
2019-04-11T07:13:20.984Z,5.23
2019-04-11T07:15:48.518Z,4.10
2019-04-11T07:18:35.755Z,4.00
2019-04-11T07:21:04.702Z,4.30
2019-04-11T07:23:38.435Z,3.83
2019-04-11T07:26:12.113Z,4.17
2019-04-11T07:31:33.769Z,5.55
2019-04-11T07:34:21.268Z,4.53
2019-04-11T07:36:53.556Z,3.67
2019-04-11T07:39:37.521Z,4.50
2019-04-11T07:42:07.070Z,3.90
2019-04-11T07:44:35.075Z,3.93
2019-04-11T07:47:15.675Z,4.53
2019-04-11T07:49:35.284Z,3.90
2019-04-11T07:52:06.766Z,3.40
2019-04-11T07:54:34.748Z,3.70
2019-04-11T07:57:04.180Z,3.37
2019-04-11T07:59:32.146Z,3.23
2019-04-11T08:05:11.112Z,5.00
2019-04-11T08:07:55.168Z,4.00
2019-04-11T08:10:25.450Z,3.50
2019-04-11T08:12:54.008Z,3.50
2019-04-11T08:15:26.745Z,3.30
2019-04-11T08:17:56.329Z,3.20
2019-04-11T08:20:29.310Z,3.23
2019-04-11T08:22:57.185Z,3.13
2019-04-11T08:25:29.440Z,3.27
2019-04-11T08:28:01.235Z,3.00
2019-04-11T08:30:28.845Z,2.60
2019-04-11T08:32:56.750Z,3.00
2019-04-11T08:35:36.590Z,2.93
2019-04-11T08:38:04.548Z,3.20
2019-04-11T08:40:35.736Z,3.37
2019-04-11T08:43:07.092Z,3.47
2019-04-11T08:45:42.268Z,2.93
2019-04-11T08:48:09.345Z,3.10
2019-04-11T08:50:38.474Z,2.90
2019-04-11T08:53:08.659Z,3.00
2019-04-11T08:55:46.666Z,3.57
2019-04-11T08:58:02.459Z,3.30
2019-04-11T09:00:36.610Z,3.30
2019-04-11T09:03:13.979Z,3.90
2019-04-11T09:05:47.038Z,3.33
2019-04-11T09:08:26.693Z,3.20
2019-04-11T09:10:56.089Z,3.43
2019-04-11T09:13:36.243Z,3.20
2019-04-11T09:16:09.684Z,2.77
2019-04-11T09:18:36.790Z,3.73
2019-04-11T09:21:11.923Z,3.20
2019-04-11T09:23:39.206Z,3.23
2019-04-11T09:28:59.844Z,3.92
2019-04-11T09:31:32.268Z,3.53
2019-04-11T09:34:05.781Z,3.13
2019-04-11T09:36:33.011Z,3.83
2019-04-11T09:39:06.609Z,2.90
2019-04-11T09:41:40.415Z,3.03
2019-04-11T09:44:18.859Z,2.93
2019-04-11T09:47:01.368Z,3.17
2019-04-11T09:49:29.058Z,3.10
2019-04-11T09:51:58.216Z,3.37
2019-04-11T09:54:30.267Z,3.17
2019-04-11T09:57:00.236Z,3.00
2019-04-11T09:59:33.446Z,3.60
2019-04-11T10:02:10.092Z,3.63
2019-04-11T10:04:38.053Z,2.90
2019-04-11T10:07:21.616Z,3.87
2019-04-11T10:12:42.432Z,4.35
2019-04-11T10:15:09.323Z,3.90
2019-04-11T10:17:54.815Z,4.17
2019-04-11T10:20:21.307Z,4.00
2019-04-11T10:22:54.543Z,3.30
2019-04-11T10:25:23.130Z,4.10
2019-04-11T10:27:55.330Z,3.67
2019-04-11T10:30:29.410Z,3.60
2019-04-11T10:32:57.327Z,3.70
2019-04-11T10:38:22.513Z,4.62
2019-04-11T10:40:56.569Z,3.70
2019-04-11T10:43:24.495Z,3.63
2019-04-11T10:45:56.663Z,4.13
2019-04-11T10:48:34.584Z,3.40
2019-04-11T10:50:58.332Z,3.37
2019-04-11T10:53:25.510Z,3.63
2019-04-11T10:58:49.150Z,4.35
2019-04-11T11:01:19.926Z,3.93
2019-04-11T11:03:55.558Z,3.83
2019-04-11T11:06:22.216Z,3.47
2019-04-11T11:08:55.537Z,3.40
2019-04-11T11:11:38.715Z,4.20
2019-04-11T11:14:22.993Z,3.53
2019-04-11T11:17:04.538Z,3.23
2019-04-11T11:19:46.590Z,4.23
2019-04-11T11:25:00.151Z,4.62
2019-04-11T11:27:27.270Z,3.63
2019-04-11T11:30:04.292Z,3.80
2019-04-11T11:32:31.465Z,3.57
2019-04-11T11:34:58.936Z,3.80
2019-04-11T11:37:39.881Z,3.43
2019-04-11T11:40:13.767Z,3.20
2019-04-11T11:42:42.148Z,3.43
2019-04-11T11:45:27.762Z,3.47
2019-04-11T11:48:00.008Z,3.77
2019-04-11T11:50:30.390Z,3.27
2019-04-11T11:53:14.803Z,3.47
2019-04-11T11:55:43.194Z,3.77
2019-04-11T11:58:17.032Z,3.53
2019-04-11T12:00:42.296Z,4.00
2019-04-11T12:06:05.272Z,4.07
2019-04-11T12:08:35.560Z,3.73
2019-04-11T12:11:05.953Z,4.00
2019-04-11T12:13:45.279Z,3.77
2019-04-11T12:16:16.063Z,3.27
2019-04-11T12:18:48.437Z,3.80
2019-04-11T12:21:13.495Z,3.47
2019-04-11T12:23:56.243Z,3.60
2019-04-11T12:26:15.201Z,3.47
2019-04-11T12:28:43.641Z,3.60
2019-04-11T12:31:10.191Z,3.60
2019-04-11T12:33:43.707Z,3.47
2019-04-11T12:36:10.654Z,4.00
2019-04-11T12:38:38.685Z,4.07
2019-04-11T12:41:11.015Z,4.13
2019-04-11T12:43:44.954Z,4.20
2019-04-11T12:46:25.057Z,3.40
2019-04-11T12:48:46.552Z,3.90
2019-04-11T12:51:19.722Z,3.67
2019-04-11T12:53:47.234Z,3.67
2019-04-11T12:59:10.428Z,4.65
2019-04-11T13:01:43.182Z,4.17
2019-04-11T13:04:20.577Z,3.33
2019-04-11T13:06:51.492Z,3.93
2019-04-11T13:09:21.434Z,3.90
2019-04-11T13:11:50.485Z,3.37
2019-04-11T13:17:15.917Z,4.40
2019-04-11T13:22:37.849Z,4.28
2019-04-11T13:25:07.238Z,3.77
2019-04-11T13:27:35.547Z,3.83
2019-04-11T13:30:09.379Z,3.83
2019-04-11T13:32:42.501Z,4.30
2019-04-11T13:35:16.499Z,3.87
2019-04-11T13:37:51.019Z,4.00
2019-04-11T13:40:28.407Z,4.13
2019-04-11T13:43:11.625Z,4.27
2019-04-11T13:45:55.499Z,3.63
2019-04-11T13:48:28.833Z,3.80
2019-04-11T13:50:56.313Z,4.20
2019-04-11T13:53:26.756Z,3.47
2019-04-11T13:55:54.297Z,3.57
2019-04-11T13:58:27.523Z,4.23
2019-04-11T14:00:55.824Z,3.40
2019-04-11T14:06:17.493Z,4.25
2019-04-11T14:08:47.633Z,3.97
2019-04-11T14:11:16.092Z,3.28
2019-04-11T14:13:44.567Z,3.40
2019-04-11T14:16:29.872Z,3.70
2019-04-11T14:18:55.153Z,3.43
2019-04-11T14:21:22.626Z,3.77
2019-04-11T14:23:55.833Z,3.40
2019-04-11T14:26:38.345Z,3.90
2019-04-11T14:29:22.645Z,3.53
2019-04-11T14:31:50.949Z,3.90
2019-04-11T14:34:20.405Z,3.13
2019-04-11T14:36:48.650Z,3.47
2019-04-11T14:39:16.201Z,3.30
2019-04-11T14:41:44.485Z,3.60
2019-04-11T14:44:15.802Z,3.73
2019-04-11T14:46:40.558Z,4.00
2019-04-11T14:49:10.170Z,3.33
2019-04-11T14:54:33.806Z,4.50
2019-04-11T14:57:03.131Z,4.43
2019-04-11T14:59:48.441Z,3.67
2019-04-11T15:02:18.902Z,3.53
2019-04-11T15:04:52.093Z,3.30
2019-04-11T15:07:19.572Z,4.27
2019-04-11T15:10:01.934Z,4.27
2019-04-11T15:12:31.994Z,3.53
2019-04-11T15:15:05.153Z,3.80
2019-04-11T15:17:33.396Z,3.77
2019-04-11T15:20:06.697Z,4.07
2019-04-11T15:25:41.299Z,4.12
2019-04-11T15:31:06.084Z,4.90
2019-04-11T15:33:36.526Z,4.07
2019-04-11T15:36:04.028Z,4.03
2019-04-11T15:38:38.048Z,4.10
2019-04-11T15:41:08.906Z,4.40
2019-04-11T15:43:43.626Z,4.37
2019-04-11T15:46:11.041Z,4.20
2019-04-11T15:51:35.091Z,4.72
2019-04-11T15:54:11.150Z,4.37
2019-04-11T15:56:41.683Z,4.00
2019-04-11T16:02:07.430Z,5.05
2019-04-11T16:04:49.783Z,4.23
2019-04-11T16:07:23.967Z,4.27
2019-04-11T16:09:51.961Z,4.20
2019-04-11T16:12:20.209Z,4.37
2019-04-11T16:17:49.111Z,5.10
2019-04-11T16:20:18.136Z,4.22
2019-04-11T16:22:59.738Z,3.80
2019-04-11T16:25:29.230Z,4.03
2019-04-11T16:28:11.664Z,4.30
2019-04-11T16:30:39.802Z,3.90
2019-04-11T16:33:09.276Z,4.33
2019-04-11T16:35:38.569Z,4.23
2019-04-11T16:38:10.432Z,4.40
2019-04-11T16:40:41.109Z,4.10
2019-04-11T16:43:08.585Z,4.20
2019-04-11T16:45:55.514Z,4.30
2019-04-11T16:48:25.288Z,4.20
2019-04-11T16:50:50.590Z,3.80
2019-04-11T16:53:18.833Z,3.80
2019-04-11T16:55:46.343Z,4.00
2019-04-11T16:58:17.042Z,3.93
2019-04-11T17:00:41.435Z,3.90
2019-04-11T17:03:09.064Z,4.07
2019-04-11T17:05:37.279Z,3.90
2019-04-11T17:08:08.269Z,4.03
2019-04-11T17:10:42.259Z,4.10
2019-04-11T17:13:09.746Z,3.70
2019-04-11T17:15:38.111Z,4.10
2019-04-11T17:18:08.914Z,4.23
2019-04-11T17:20:39.558Z,4.27
2019-04-11T17:23:04.689Z,3.83
2019-04-11T17:25:32.933Z,4.20
2019-04-11T17:28:00.514Z,3.73
2019-04-11T17:30:28.006Z,3.60
2019-04-11T17:32:56.267Z,3.77
2019-04-11T17:35:23.841Z,3.57
2019-04-11T17:37:51.322Z,3.80
2019-04-11T17:40:19.661Z,3.57
2019-04-11T17:42:47.187Z,3.73
2019-04-11T17:45:14.676Z,3.90
2019-04-11T17:47:44.723Z,4.10
2019-04-11T17:50:09.830Z,3.93
2019-04-11T17:52:37.321Z,3.60
2019-04-11T17:55:05.680Z,3.80
2019-04-11T17:57:33.153Z,3.77
2019-04-11T18:00:02.329Z,3.80
2019-04-11T18:02:29.834Z,4.00
2019-04-11T18:04:59.055Z,4.07
2019-04-11T18:07:26.344Z,3.83
2019-04-11T18:09:55.784Z,3.70
2019-04-11T18:12:23.858Z,4.10
2019-04-11T18:14:50.371Z,4.10
2019-04-11T18:17:17.972Z,3.57
2019-04-11T18:19:46.204Z,3.93
2019-04-11T18:22:14.318Z,4.83
2019-04-11T18:24:41.965Z,4.47
2019-04-11T18:27:09.441Z,4.67
2019-04-11T18:29:38.465Z,4.27
2019-04-11T18:32:06.702Z,4.23
2019-04-11T18:34:34.182Z,3.93
2019-04-11T18:37:02.214Z,3.60
2019-04-11T18:39:29.160Z,4.20
2019-04-11T18:41:57.711Z,4.70
2019-04-11T18:44:24.834Z,4.03
2019-04-11T18:46:52.306Z,4.37
2019-04-11T18:49:21.827Z,4.60
2019-04-11T18:51:50.833Z,4.30
2019-04-11T18:54:17.082Z,5.07
2019-04-11T18:56:44.597Z,5.10
2019-04-11T18:59:12.068Z,4.47
2019-04-11T19:01:40.142Z,4.13
2019-04-11T19:04:07.110Z,4.80
2019-04-11T19:06:35.365Z,4.73
2019-04-11T19:09:03.755Z,4.60
2019-04-11T19:11:32.038Z,4.30
2019-04-11T19:13:59.529Z,4.10
2019-04-11T19:16:27.763Z,4.23
2019-04-11T19:18:55.393Z,4.23
2019-04-11T19:21:22.898Z,3.87
2019-04-11T19:23:50.482Z,4.13
2019-04-11T19:26:18.728Z,4.77
2019-04-11T19:28:46.222Z,4.67
2019-04-11T19:31:14.481Z,4.10
2019-04-11T19:33:42.037Z,3.97
2019-04-11T19:36:10.107Z,4.20
2019-04-11T19:38:37.788Z,4.53
2019-04-11T19:41:05.258Z,4.10
2019-04-11T19:43:33.501Z,4.13
2019-04-11T19:46:00.976Z,4.10
2019-04-11T19:48:28.453Z,3.90
2019-04-11T19:50:58.653Z,3.87
2019-04-11T19:53:23.406Z,3.70
2019-04-11T19:55:53.486Z,4.20
2019-04-11T19:58:26.959Z,4.03
2019-04-11T20:00:54.438Z,3.53
2019-04-11T20:03:24.165Z,4.07
2019-04-11T20:05:49.414Z,4.33
2019-04-11T20:08:17.658Z,3.97
2019-04-11T20:10:45.143Z,3.73
2019-04-11T20:13:12.954Z,3.80
2019-04-11T20:15:42.420Z,3.50
2019-04-11T20:18:08.041Z,3.70
2019-04-11T20:20:37.053Z,3.80
2019-04-11T20:23:04.825Z,3.80
2019-04-11T20:25:33.304Z,4.23
2019-04-11T20:28:02.482Z,4.07
2019-04-11T20:30:29.945Z,4.10
2019-04-11T20:32:58.197Z,4.67
2019-04-11T20:35:29.027Z,3.93
2019-04-11T20:37:54.330Z,4.17
2019-04-11T20:40:22.543Z,4.20
2019-04-11T20:42:48.164Z,4.37
2019-04-11T20:45:15.659Z,4.73
2019-04-11T20:47:44.053Z,3.90
2019-04-11T20:50:11.543Z,3.93
2019-04-11T20:52:39.203Z,4.40
2019-04-11T20:55:08.933Z,3.97
2019-04-11T20:57:34.265Z,4.20
2019-04-11T21:00:01.774Z,4.50
2019-04-11T21:02:29.326Z,4.33
2019-04-11T21:04:58.903Z,5.13
2019-04-11T21:07:25.989Z,3.97
2019-04-11T21:09:54.229Z,4.73
2019-04-11T21:12:21.722Z,4.43
2019-04-11T21:14:49.957Z,4.27
2019-04-11T21:17:17.469Z,3.83
2019-04-11T21:19:45.714Z,3.37
2019-04-11T21:22:13.188Z,3.50
2019-04-11T21:24:40.658Z,3.87
2019-04-11T21:27:08.211Z,4.00
2019-04-11T21:29:35.778Z,4.10
2019-04-11T21:32:04.247Z,4.10
2019-04-11T21:34:32.356Z,3.90
2019-04-11T21:37:02.518Z,4.00
2019-04-11T21:39:27.572Z,4.40
2019-04-11T21:41:55.125Z,3.70
2019-04-11T21:44:22.676Z,4.00
2019-04-11T21:46:50.157Z,4.30
2019-04-11T21:49:18.400Z,4.27
2019-04-11T21:51:45.937Z,4.20
2019-04-11T21:54:14.948Z,4.50
2019-04-11T21:56:42.595Z,4.60
2019-04-11T21:59:10.103Z,3.77
2019-04-11T22:01:37.579Z,4.37
2019-04-11T22:04:05.050Z,4.43
2019-04-11T22:06:33.292Z,4.20
2019-04-11T22:09:04.801Z,4.30
2019-04-11T22:11:28.258Z,4.77
2019-04-11T22:13:56.487Z,4.17
2019-04-11T22:16:23.962Z,4.50
2019-04-11T22:18:51.506Z,3.97
2019-04-11T22:21:18.977Z,4.37
2019-04-11T22:23:48.971Z,4.00
2019-04-11T22:26:13.993Z,4.53
2019-04-11T22:28:41.465Z,4.47
2019-04-11T22:31:08.961Z,4.27
2019-04-11T22:33:46.364Z,4.00
2019-04-11T22:36:13.849Z,4.20
2019-04-11T22:38:42.143Z,4.77
2019-04-11T22:41:09.652Z,4.17
2019-04-11T22:43:38.110Z,4.37
2019-04-11T22:46:08.034Z,4.00
2019-04-11T22:48:33.799Z,4.20
2019-04-11T22:51:01.271Z,4.47
2019-04-11T22:53:29.525Z,5.07
2019-04-11T22:55:57.758Z,5.07
2019-04-11T22:58:26.081Z,4.27
2019-04-11T23:00:53.570Z,4.90
2019-04-11T23:03:21.809Z,3.90
2019-04-11T23:05:49.291Z,4.63
2019-04-11T23:08:19.006Z,4.70
2019-04-11T23:10:46.457Z,4.77
2019-04-11T23:13:15.465Z,4.80
2019-04-11T23:15:43.401Z,4.27
2019-04-11T23:18:11.861Z,4.80
2019-04-11T23:20:38.541Z,4.30
2019-04-11T23:23:06.123Z,4.30
2019-04-11T23:25:33.599Z,4.73
2019-04-11T23:28:01.078Z,4.73
2019-04-11T23:30:29.436Z,4.53
2019-04-11T23:32:56.909Z,4.77
2019-04-11T23:35:24.449Z,4.17
2019-04-11T23:37:52.091Z,4.57
2019-04-11T23:40:21.004Z,4.73
2019-04-11T23:42:47.842Z,4.87
2019-04-11T23:45:15.177Z,4.53
2019-04-11T23:47:42.654Z,4.00
2019-04-11T23:50:10.118Z,4.67
2019-04-11T23:52:37.588Z,4.60
2019-04-11T23:55:05.172Z,5.17
2019-04-11T23:57:34.524Z,4.37
